Time;durP1;ratioP1;P1;durP2;ratioP2;P2;SDS_P1;SDS_P2;PMS_P1;PMS_P2;Temp;Humidity;BMP_temperature;BMP_pressure;BME280_temperature;BME280_humidity;BME280_pressure;Samples;Min_cycle;Max_cycle;Signal;HPM_P1;HPM_P2
2023/04/17 00:12:18;;;;;;;59.10;32.03;;;8.90;99.90;;;;;;4809073;29;20191;-78
2023/04/17 00:14:44;;;;;;;59.05;31.83;;;8.90;99.90;;;;;;4808874;29;20196;-76
2023/04/17 00:17:09;;;;;;;61.28;32.63;;;8.90;99.90;;;;;;4792711;29;20600;-78
2023/04/17 00:19:35;;;;;;;60.72;32.05;;;8.80;99.90;;;;;;4792641;29;20280;-77
2023/04/17 00:22:01;;;;;;;59.60;32.28;;;8.80;99.90;;;;;;4809484;29;20544;-79
2023/04/17 00:24:27;;;;;;;53.17;30.65;;;8.80;99.90;;;;;;4809227;29;20761;-78
2023/04/17 00:26:52;;;;;;;58.92;31.70;;;8.80;99.90;;;;;;4808467;29;20269;-76
2023/04/17 00:29:18;;;;;;;57.15;31.33;;;8.80;99.90;;;;;;4792999;29;20191;-77
2023/04/17 00:31:44;;;;;;;60.13;32.03;;;8.80;99.90;;;;;;4808342;29;20195;-77
2023/04/17 00:34:10;;;;;;;60.38;32.15;;;8.80;99.90;;;;;;4793044;29;20275;-77
2023/04/17 00:36:52;;;;;;;62.33;33.28;;;8.80;99.90;;;;;;4792196;29;20196;-77
2023/04/17 00:43:30;;;;;;;64.60;32.97;;;8.80;99.90;;;;;;4808485;29;20241;-77
2023/04/17 00:50:03;;;;;;;61.17;33.50;;;8.80;99.90;;;;;;4808371;29;20179;-77
2023/04/17 00:56:24;;;;;;;64.63;33.60;;;8.80;99.90;;;;;;4808638;29;20538;-77
2023/04/17 01:07:15;;;;;;;69.75;36.00;;;8.80;99.90;;;;;;4807851;29;20168;-77
2023/04/17 01:13:49;;;;;;;71.25;36.40;;;8.70;99.90;;;;;;4808102;29;20255;-77
2023/04/17 01:20:10;;;;;;;72.95;36.08;;;8.70;99.90;;;;;;4807657;29;20276;-77
2023/04/17 01:22:36;;;;;;;79.25;37.75;;;8.70;99.90;;;;;;4807535;29;20567;-78
2023/04/17 01:25:04;;;;;;;71.63;36.05;;;8.70;99.90;;;;;;4792133;29;20192;-78
2023/04/17 01:27:40;;;;;;;70.15;36.50;;;8.70;99.90;;;;;;4777466;29;20196;-77
2023/04/17 01:34:06;;;;;;;76.88;36.42;;;8.70;99.90;;;;;;4807574;29;20659;-78
2023/04/17 01:40:29;;;;;;;74.53;34.97;;;8.70;99.90;;;;;;4807215;29;20245;-77
2023/04/17 01:42:55;;;;;;;70.35;35.80;;;8.70;99.90;;;;;;4777078;29;20207;-77
2023/04/17 01:45:21;;;;;;;73.25;35.63;;;8.70;99.90;;;;;;4807938;29;20610;-78
2023/04/17 01:48:03;;;;;;;72.32;34.67;;;8.70;99.90;;;;;;4807104;29;20275;-77
2023/04/17 01:54:28;;;;;;;68.47;34.30;;;8.60;99.90;;;;;;4807312;29;20274;-77
2023/04/17 02:00:54;;;;;;;74.70;34.70;;;8.60;99.90;;;;;;4806886;29;20330;-78
2023/04/17 02:07:54;;;;;;;69.00;32.05;;;8.50;99.90;;;;;;4788227;30;20231;-77
2023/04/17 02:10:21;;;;;;;60.63;32.10;;;8.50;99.90;;;;;;4773577;30;20547;-77
2023/04/17 02:12:49;;;;;;;66.32;32.65;;;8.50;99.90;;;;;;4788583;30;20200;-77
2023/04/17 02:15:15;;;;;;;70.97;34.25;;;8.50;99.90;;;;;;4788883;30;20768;-77
2023/04/17 02:17:41;;;;;;;68.75;34.58;;;8.50;99.90;;;;;;4788003;29;20188;-77
2023/04/17 02:20:10;;;;;;;69.78;33.53;;;8.50;99.90;;;;;;4772707;30;20267;-78
2023/04/17 02:22:35;;;;;;;66.00;32.83;;;8.50;99.90;;;;;;4772847;30;20246;-77
2023/04/17 02:25:01;;;;;;;64.07;31.70;;;8.50;99.90;;;;;;4757737;30;20184;-78
2023/04/17 02:27:28;;;;;;;62.90;33.20;;;8.50;99.90;;;;;;4789179;30;20234;-77
2023/04/17 02:30:03;;;;;;;59.92;31.38;;;8.50;99.90;;;;;;4788957;30;20185;-77
2023/04/17 02:32:28;;;;;;;61.25;31.65;;;8.50;99.90;;;;;;4772534;30;20196;-77
2023/04/17 02:34:55;;;;;;;62.10;31.90;;;8.50;99.90;;;;;;4772524;30;20185;-78
2023/04/17 02:37:21;;;;;;;65.57;32.53;;;8.50;99.90;;;;;;4772628;30;20643;-77
2023/04/17 02:39:53;;;;;;;65.35;32.28;;;8.50;99.90;;;;;;4772925;30;20306;-78
2023/04/17 02:46:13;;;;;;;61.80;31.75;;;8.50;99.90;;;;;;4788758;30;20625;-78
2023/04/17 02:48:39;;;;;;;62.20;31.02;;;8.40;99.90;;;;;;4772182;30;20197;-77
2023/04/17 02:51:05;;;;;;;67.47;33.25;;;8.40;99.90;;;;;;4772577;30;20181;-77
2023/04/17 02:53:31;;;;;;;62.58;30.67;;;8.40;99.90;;;;;;4772691;30;20532;-77
2023/04/17 02:55:57;;;;;;;63.88;31.83;;;8.40;99.90;;;;;;4788822;30;20173;-77
2023/04/17 02:58:24;;;;;;;64.03;31.08;;;8.40;99.90;;;;;;4771868;30;20195;-77
2023/04/17 03:00:50;;;;;;;65.13;31.38;;;8.40;99.90;;;;;;4788132;30;20232;-77
2023/04/17 03:03:17;;;;;;;68.13;33.17;;;8.40;99.90;;;;;;4757617;30;20207;-77
2023/04/17 03:05:43;;;;;;;66.45;31.73;;;8.40;99.90;;;;;;4788101;29;20642;-77
2023/04/17 03:08:09;;;;;;;70.10;31.90;;;8.40;99.90;;;;;;4788123;30;20284;-77
2023/04/17 03:10:44;;;;;;;67.80;33.30;;;8.40;99.90;;;;;;4772526;30;20196;-77
2023/04/17 03:17:10;;;;;;;73.03;33.03;;;8.40;99.90;;;;;;4787924;30;20199;-77
2023/04/17 03:23:40;;;;;;;65.63;30.70;;;8.40;99.90;;;;;;4788461;30;20179;-78
2023/04/17 03:30:08;;;;;;;64.28;30.17;;;8.30;99.90;;;;;;4791657;29;20218;-77
2023/04/17 03:32:36;;;;;;;70.25;32.40;;;8.30;99.90;;;;;;4775329;30;20567;-77
2023/04/17 03:35:02;;;;;;;68.63;33.08;;;8.30;99.90;;;;;;4776146;30;20196;-78
2023/04/17 03:41:25;;;;;;;71.72;31.80;;;8.20;99.90;;;;;;4791815;30;20250;-78
2023/04/17 03:43:52;;;;;;;79.88;33.17;;;8.20;99.90;;;;;;4760579;30;20188;-77
2023/04/17 03:46:18;;;;;;;78.80;34.90;;;8.20;99.90;;;;;;4761132;30;20645;-77
2023/04/17 03:49:04;;;;;;;92.28;33.22;;;8.20;99.90;;;;;;4775486;30;20181;-77
2023/04/17 03:56:05;;;;;;;89.97;29.73;;;8.20;99.90;;;;;;4791337;30;20222;-78
2023/04/17 03:59:22;;;;;;;76.93;30.48;;;8.20;99.90;;;;;;4760570;30;20193;-77
2023/04/17 04:01:49;;;;;;;85.10;30.00;;;8.20;99.90;;;;;;4774862;30;20256;-77
2023/04/17 04:04:18;;;;;;;71.82;29.02;;;8.20;99.90;;;;;;4760486;30;20192;-77
2023/04/17 04:06:46;;;;;;;66.97;30.95;;;8.20;99.90;;;;;;4774277;30;21462;-77
2023/04/17 04:09:14;;;;;;;75.22;30.88;;;8.20;99.90;;;;;;4774514;30;20220;-77
2023/04/17 04:11:41;;;;;;;69.55;31.45;;;8.20;99.90;;;;;;4774742;30;20200;-77
2023/04/17 04:14:07;;;;;;;75.18;32.05;;;8.20;99.90;;;;;;4774323;30;20196;-77
2023/04/17 04:16:33;;;;;;;100.22;34.30;;;8.20;99.90;;;;;;4774779;30;20196;-77
2023/04/17 04:19:07;;;;;;;76.05;34.28;;;8.20;99.90;;;;;;4774436;30;20707;-78
2023/04/17 04:21:33;;;;;;;79.13;35.67;;;8.20;99.90;;;;;;4774726;30;20241;-79
2023/04/17 04:23:59;;;;;;;107.47;36.08;;;8.20;99.90;;;;;;4773751;30;20240;-78
2023/04/17 04:26:26;;;;;;;80.20;36.67;;;8.20;99.90;;;;;;4774598;30;20228;-79
2023/04/17 04:28:53;;;;;;;78.00;36.33;;;8.20;99.90;;;;;;4773838;30;20185;-79
2023/04/17 04:31:29;;;;;;;92.07;35.03;;;8.20;99.90;;;;;;4773276;30;20200;-79
2023/04/17 04:33:58;;;;;;;71.85;32.92;;;8.30;99.90;;;;;;4773905;30;20200;-82
2023/04/17 04:36:28;;;;;;;74.63;34.17;;;8.30;99.90;;;;;;4773671;30;20204;-80
2023/04/17 04:39:04;;;;;;;67.50;33.72;;;8.30;99.90;;;;;;4769098;30;20232;-80
2023/04/17 04:41:33;;;;;;;72.85;34.88;;;8.30;99.90;;;;;;4768538;30;20192;-84
2023/04/17 04:44:01;;;;;;;64.70;33.15;;;8.30;99.90;;;;;;4770420;30;20197;-79
2023/04/17 04:46:29;;;;;;;64.90;34.58;;;8.30;99.90;;;;;;4761817;30;20204;-79
2023/04/17 04:48:56;;;;;;;69.22;35.55;;;8.30;99.90;;;;;;4755402;30;20201;-79
2023/04/17 04:51:26;;;;;;;66.95;33.90;;;8.30;99.90;;;;;;4750075;30;20216;-80
2023/04/17 04:53:52;;;;;;;70.78;34.47;;;8.40;99.90;;;;;;4756141;30;20193;-79
2023/04/17 04:56:19;;;;;;;69.50;34.00;;;8.40;99.90;;;;;;4755928;30;20251;-79
2023/04/17 04:58:47;;;;;;;73.97;32.55;;;8.40;99.90;;;;;;4780926;30;20201;-79
2023/04/17 05:01:13;;;;;;;72.38;33.72;;;8.40;99.90;;;;;;4786746;30;20205;-79
2023/04/17 05:03:44;;;;;;;67.35;32.65;;;8.40;99.90;;;;;;4773648;30;20565;-80
2023/04/17 05:06:12;;;;;;;71.00;33.05;;;8.40;99.90;;;;;;4783904;30;20189;-78
2023/04/17 05:08:46;;;;;;;77.15;35.35;;;8.40;99.90;;;;;;4757719;30;20339;-78
2023/04/17 05:11:14;;;;;;;74.97;36.13;;;8.40;99.90;;;;;;4753701;30;20228;-78
2023/04/17 05:13:40;;;;;;;68.55;35.22;;;8.40;99.90;;;;;;4754478;30;20555;-80
2023/04/17 05:16:12;;;;;;;71.20;33.97;;;8.40;99.90;;;;;;4755016;30;20724;-81
2023/04/17 05:18:38;;;;;;;70.70;34.63;;;8.50;99.90;;;;;;4771256;30;20200;-79
2023/04/17 05:21:07;;;;;;;69.40;34.65;;;8.50;99.90;;;;;;4754772;30;20201;-79
2023/04/17 05:23:33;;;;;;;71.88;34.58;;;8.50;99.90;;;;;;4755141;30;20193;-79
2023/04/17 05:25:59;;;;;;;77.53;36.13;;;8.40;99.90;;;;;;4755641;30;20193;-77
2023/04/17 05:28:26;;;;;;;74.00;35.58;;;8.50;99.90;;;;;;4771057;30;20213;-81
2023/04/17 05:30:55;;;;;;;79.50;35.03;;;8.50;99.90;;;;;;4731130;30;20200;-78
2023/04/17 05:33:29;;;;;;;73.40;34.08;;;8.50;99.90;;;;;;4754592;30;20198;-78
2023/04/17 05:35:59;;;;;;;68.40;34.60;;;8.60;99.90;;;;;;4771212;30;20255;-78
2023/04/17 05:38:25;;;;;;;74.53;35.53;;;8.60;99.90;;;;;;4755255;30;20193;-77
2023/04/17 05:40:52;;;;;;;77.53;35.45;;;8.60;99.90;;;;;;4754746;30;20205;-77
2023/04/17 05:43:18;;;;;;;76.90;35.63;;;8.60;99.90;;;;;;4755566;30;20186;-78
2023/04/17 05:45:44;;;;;;;74.75;34.92;;;8.70;99.90;;;;;;4754851;30;20193;-78
2023/04/17 05:48:10;;;;;;;77.22;35.63;;;8.70;99.90;;;;;;4755146;30;20193;-78
2023/04/17 05:50:38;;;;;;;74.32;36.70;;;8.70;99.90;;;;;;4754328;30;20618;-78
2023/04/17 05:53:05;;;;;;;68.38;34.35;;;8.80;99.90;;;;;;4749514;30;20202;-78
2023/04/17 05:55:36;;;;;;;73.07;34.22;;;8.80;99.90;;;;;;4751555;30;20288;-80
2023/04/17 05:58:05;;;;;;;67.82;34.50;;;8.90;99.90;;;;;;4734662;30;20190;-78
2023/04/17 06:00:31;;;;;;;69.28;34.97;;;8.90;99.90;;;;;;4762408;30;20354;-78
2023/04/17 06:03:02;;;;;;;72.28;34.95;;;8.90;99.90;;;;;;4753843;30;20201;-79
2023/04/17 06:05:37;;;;;;;65.63;33.90;;;9.00;99.90;;;;;;4753939;30;20195;-81
2023/04/17 06:08:03;;;;;;;67.65;34.10;;;9.00;99.90;;;;;;4782288;30;20681;-79
2023/04/17 06:10:29;;;;;;;63.92;33.90;;;9.00;99.90;;;;;;4788652;30;20195;-78
2023/04/17 06:12:55;;;;;;;58.95;32.78;;;9.10;99.90;;;;;;4757531;30;20188;-77
2023/04/17 06:15:21;;;;;;;58.97;31.80;;;9.10;99.90;;;;;;4772443;30;20702;-79
2023/04/17 06:17:47;;;;;;;59.65;32.10;;;9.20;99.90;;;;;;4782760;29;20235;-79
2023/04/17 06:20:13;;;;;;;59.60;32.50;;;9.20;99.90;;;;;;4785453;30;20221;-78
2023/04/17 06:22:40;;;;;;;55.10;31.83;;;9.20;99.90;;;;;;4772159;30;20189;-78
2023/04/17 06:25:07;;;;;;;55.65;30.88;;;9.30;99.90;;;;;;4771818;30;20200;-78
2023/04/17 06:27:32;;;;;;;53.35;30.90;;;9.30;99.90;;;;;;4772187;30;20192;-78
2023/04/17 06:29:59;;;;;;;54.97;31.38;;;9.30;99.90;;;;;;4754411;30;20199;-76
2023/04/17 06:32:25;;;;;;;53.40;31.17;;;9.40;99.90;;;;;;4768383;30;20225;-79
2023/04/17 06:34:51;;;;;;;53.35;31.50;;;9.40;99.90;;;;;;4782912;29;20188;-77
2023/04/17 06:37:21;;;;;;;51.88;31.40;;;9.50;99.90;;;;;;4745055;30;20196;-77
2023/04/17 06:39:47;;;;;;;47.83;29.13;;;9.50;99.90;;;;;;4788325;30;20231;-78
2023/04/17 06:42:15;;;;;;;50.33;30.08;;;9.60;99.90;;;;;;4772355;30;20288;-77
2023/04/17 06:44:42;;;;;;;51.10;30.27;;;9.60;99.90;;;;;;4754291;30;20244;-76
2023/04/17 06:47:12;;;;;;;44.53;28.27;;;9.60;99.90;;;;;;4783524;29;20200;-79
2023/04/17 06:49:38;;;;;;;49.08;30.10;;;9.70;99.90;;;;;;4769116;30;20540;-78
2023/04/17 06:52:04;;;;;;;46.05;29.75;;;9.80;99.90;;;;;;4771831;30;20212;-77
2023/04/17 06:54:29;;;;;;;53.03;30.90;;;9.80;99.90;;;;;;4756702;30;20197;-79
2023/04/17 06:56:55;;;;;;;44.63;29.35;;;9.90;99.90;;;;;;4781251;29;20578;-78
2023/04/17 06:59:21;;;;;;;49.80;30.98;;;10.00;99.90;;;;;;4767488;29;20248;-78
2023/04/17 07:01:47;;;;;;;47.03;29.20;;;10.10;99.90;;;;;;4780372;29;20204;-79
2023/04/17 07:04:13;;;;;;;46.35;30.92;;;10.20;99.90;;;;;;4787805;29;20230;-79
2023/04/17 07:06:38;;;;;;;43.65;29.50;;;10.20;99.90;;;;;;4776027;30;20252;-78
2023/04/17 07:09:04;;;;;;;42.00;28.80;;;10.30;99.90;;;;;;4787716;30;20188;-81
2023/04/17 07:11:30;;;;;;;45.22;28.90;;;10.40;99.90;;;;;;4774051;30;20375;-81
2023/04/17 07:13:56;;;;;;;43.63;28.52;;;10.50;99.90;;;;;;4742363;30;20200;-79
2023/04/17 07:16:22;;;;;;;42.83;28.88;;;10.60;99.90;;;;;;4773692;30;20194;-79
2023/04/17 07:18:49;;;;;;;43.08;29.02;;;10.70;99.90;;;;;;4754293;30;20216;-79
2023/04/17 07:21:15;;;;;;;41.80;27.08;;;10.90;99.90;;;;;;4759518;30;20599;-79
2023/04/17 07:23:41;;;;;;;41.63;27.20;;;11.00;99.90;;;;;;4772433;30;20337;-79
2023/04/17 07:26:07;;;;;;;40.92;27.52;;;11.20;99.90;;;;;;4766648;30;20320;-79
2023/04/17 07:28:33;;;;;;;38.97;26.23;;;11.30;99.90;;;;;;4762315;30;20238;-79
2023/04/17 07:30:59;;;;;;;35.25;25.63;;;11.40;99.90;;;;;;4759674;30;20208;-79
2023/04/17 07:33:25;;;;;;;36.65;25.73;;;11.50;99.90;;;;;;4742640;30;20207;-78
2023/04/17 07:35:52;;;;;;;33.08;24.08;;;11.70;99.90;;;;;;4758094;30;20648;-79
2023/04/17 07:38:18;;;;;;;33.72;24.05;;;12.00;99.90;;;;;;4761862;30;20197;-79
2023/04/17 07:40:44;;;;;;;32.03;23.10;;;12.20;99.90;;;;;;4759064;30;20275;-80
2023/04/17 07:43:10;;;;;;;30.40;22.98;;;12.50;99.90;;;;;;4766650;30;20599;-79
2023/04/17 07:45:35;;;;;;;30.00;22.80;;;12.60;99.90;;;;;;4762808;30;20609;-79
2023/04/17 07:48:03;;;;;;;36.35;22.90;;;12.80;99.90;;;;;;4765234;30;20228;-80
2023/04/17 07:50:29;;;;;;;28.02;22.33;;;13.10;99.90;;;;;;4759540;30;20195;-80
2023/04/17 07:52:55;;;;;;;31.65;22.00;;;13.50;99.90;;;;;;4772102;30;20216;-79
2023/04/17 07:55:21;;;;;;;28.05;20.73;;;14.00;99.90;;;;;;4768215;30;20185;-81
2023/04/17 07:57:48;;;;;;;32.22;20.27;;;14.60;99.90;;;;;;4768282;30;20247;-80
2023/04/17 08:00:15;;;;;;;26.02;20.23;;;14.90;99.90;;;;;;4775096;30;20220;-81
2023/04/17 08:02:42;;;;;;;23.83;18.90;;;14.90;99.90;;;;;;4771120;30;20205;-80
2023/04/17 08:05:08;;;;;;;28.35;19.67;;;14.60;99.90;;;;;;4757373;30;20193;-86
2023/04/17 08:07:35;;;;;;;25.42;18.92;;;14.40;99.90;;;;;;4778479;29;20297;-80
2023/04/17 08:10:01;;;;;;;24.65;18.30;;;14.60;99.90;;;;;;4777161;30;20231;-80
2023/04/17 08:12:27;;;;;;;24.65;18.25;;;15.00;99.90;;;;;;4791626;30;20262;-80
2023/04/17 08:14:53;;;;;;;23.13;17.98;;;15.30;99.90;;;;;;4790178;29;20654;-80
2023/04/17 08:17:22;;;;;;;24.42;17.45;;;15.90;99.90;;;;;;4770670;30;20681;-80
2023/04/17 08:19:56;;;;;;;25.35;16.98;;;16.40;99.90;;;;;;4772559;30;20217;-80
2023/04/17 08:22:23;;;;;;;23.60;16.77;;;16.50;99.90;;;;;;4775335;30;20200;-80
2023/04/17 08:24:49;;;;;;;32.25;17.13;;;16.50;99.90;;;;;;4789804;30;20177;-81
2023/04/17 08:27:15;;;;;;;21.77;16.67;;;16.50;99.90;;;;;;4767618;30;20196;-82
2023/04/17 08:29:42;;;;;;;21.85;16.45;;;16.40;99.90;;;;;;4777017;29;20253;-80
2023/04/17 08:32:08;;;;;;;26.10;17.05;;;16.40;99.90;;;;;;4766931;30;20200;-80
2023/04/17 08:34:35;;;;;;;23.95;16.92;;;16.10;99.90;;;;;;4772104;30;20193;-81
2023/04/17 08:37:00;;;;;;;26.67;16.77;;;15.80;99.90;;;;;;4777335;29;20345;-81
2023/04/17 08:39:26;;;;;;;25.38;18.90;;;15.50;99.90;;;;;;4789591;30;20375;-81
2023/04/17 08:42:01;;;;;;;24.95;18.17;;;15.30;99.90;;;;;;4789817;30;20266;-80
2023/04/17 08:44:27;;;;;;;26.75;18.00;;;15.00;99.90;;;;;;4756526;30;20254;-81
2023/04/17 08:46:57;;;;;;;23.77;18.65;;;14.80;99.90;;;;;;4774467;29;20199;-81
2023/04/17 08:49:28;;;;;;;26.25;18.42;;;14.70;99.90;;;;;;4767843;30;20662;-82
2023/04/17 08:51:54;;;;;;;25.85;19.15;;;14.60;99.90;;;;;;4771792;30;20256;-85
2023/04/17 08:54:20;;;;;;;28.02;19.15;;;14.50;99.90;;;;;;4771983;30;20316;-80
2023/04/17 08:56:49;;;;;;;29.05;19.45;;;14.60;99.90;;;;;;4755586;30;20197;-81
2023/04/17 08:59:18;;;;;;;23.85;18.42;;;14.70;99.90;;;;;;4779725;29;20209;-83
2023/04/17 09:02:06;;;;;;;26.77;17.88;;;14.80;99.90;;;;;;4772275;30;20196;-80
2023/04/17 09:04:40;;;;;;;23.50;18.48;;;15.00;99.90;;;;;;4771623;30;20190;-81
2023/04/17 09:07:07;;;;;;;26.05;18.02;;;15.10;99.90;;;;;;4778330;30;20265;-80
2023/04/17 09:09:55;;;;;;;25.00;18.33;;;15.20;99.90;;;;;;4767686;29;20604;-85
2023/04/17 09:12:22;;;;;;;24.38;17.70;;;15.20;99.90;;;;;;4776218;29;20250;-81
2023/04/17 09:14:49;;;;;;;25.05;17.10;;;15.20;99.90;;;;;;4775953;29;20201;-82
2023/04/17 09:17:16;;;;;;;23.33;16.38;;;15.20;99.90;;;;;;4781035;29;20231;-82
2023/04/17 09:20:06;;;;;;;24.90;16.75;;;15.30;99.90;;;;;;4772473;30;20213;-82
2023/04/17 09:22:33;;;;;;;23.45;16.80;;;15.30;99.90;;;;;;4783942;30;20230;-80
2023/04/17 09:24:59;;;;;;;24.00;16.73;;;15.40;99.90;;;;;;4754245;30;20259;-84
2023/04/17 09:27:27;;;;;;;21.35;16.83;;;15.50;99.90;;;;;;4771764;30;20185;-80
2023/04/17 09:30:02;;;;;;;22.08;16.65;;;15.60;99.90;;;;;;4776686;30;20204;-80
2023/04/17 09:32:30;;;;;;;23.15;16.17;;;15.70;99.90;;;;;;4761948;30;20246;-81
2023/04/17 09:35:03;;;;;;;22.58;15.88;;;15.80;99.90;;;;;;4770784;29;20659;-85
2023/04/17 09:37:50;;;;;;;22.95;15.90;;;15.90;99.90;;;;;;4764634;30;20253;-82
2023/04/17 09:40:18;;;;;;;23.00;15.90;;;15.90;99.90;;;;;;4770818;30;20213;-81
2023/04/17 09:43:04;;;;;;;23.58;17.10;;;16.00;99.90;;;;;;4755404;30;20193;-81
2023/04/17 09:45:34;;;;;;;23.48;16.42;;;16.10;99.90;;;;;;4769119;29;20293;-80
2023/04/17 09:48:01;;;;;;;21.13;16.42;;;16.30;99.90;;;;;;4786520;30;20199;-81
2023/04/17 09:50:27;;;;;;;22.65;16.55;;;16.40;99.90;;;;;;4771427;30;20192;-83
2023/04/17 09:52:54;;;;;;;24.95;16.02;;;16.60;99.90;;;;;;4760997;29;20189;-83
2023/04/17 09:55:25;;;;;;;25.35;16.83;;;16.70;99.90;;;;;;4782491;30;20180;-81
2023/04/17 09:57:55;;;;;;;26.38;17.20;;;16.80;99.90;;;;;;4775387;30;20188;-80
2023/04/17 10:00:26;;;;;;;22.70;17.52;;;16.90;99.90;;;;;;4783364;30;20284;-80
2023/04/17 10:02:53;;;;;;;23.60;17.83;;;17.00;99.90;;;;;;4786858;30;20188;-82
2023/04/17 10:05:20;;;;;;;24.55;17.58;;;17.00;99.90;;;;;;4782938;30;20189;-80
2023/04/17 10:07:47;;;;;;;19.88;16.13;;;17.00;99.90;;;;;;4778143;30;20705;-80
2023/04/17 10:10:26;;;;;;;23.50;17.50;;;17.10;99.90;;;;;;4786522;30;20205;-80
2023/04/17 10:12:57;;;;;;;28.70;16.85;;;17.20;99.90;;;;;;4785450;29;20293;-84
2023/04/17 10:15:24;;;;;;;24.98;17.00;;;17.30;99.90;;;;;;4761290;30;20201;-83
2023/04/17 10:17:51;;;;;;;21.80;16.48;;;17.50;99.90;;;;;;4761424;30;20220;-79
2023/04/17 10:20:18;;;;;;;24.15;16.63;;;17.70;99.90;;;;;;4770085;30;20642;-81
2023/04/17 10:22:53;;;;;;;24.55;17.45;;;17.90;99.90;;;;;;4781683;29;20646;-83
2023/04/17 10:25:28;;;;;;;25.55;17.48;;;18.00;99.90;;;;;;4773516;29;20695;-82
2023/04/17 10:27:58;;;;;;;23.25;16.92;;;18.20;99.90;;;;;;4788629;30;20241;-80
2023/04/17 10:30:45;;;;;;;27.58;17.10;;;18.30;99.90;;;;;;4783283;29;20199;-81
2023/04/17 10:33:20;;;;;;;25.25;17.70;;;18.40;99.90;;;;;;4769359;30;20192;-82
2023/04/17 10:35:47;;;;;;;26.33;17.60;;;18.60;99.90;;;;;;4785730;30;20249;-81
2023/04/17 10:38:14;;;;;;;25.35;17.15;;;18.80;99.90;;;;;;4785107;30;20241;-81
2023/04/17 10:40:42;;;;;;;23.67;16.20;;;18.90;99.90;;;;;;4766805;29;20224;-83
2023/04/17 10:43:24;;;;;;;24.65;17.02;;;19.00;99.90;;;;;;4756084;30;20574;-82
2023/04/17 10:46:11;;;;;;;23.63;16.67;;;19.00;99.90;;;;;;4788470;30;20211;-81
2023/04/17 10:48:37;;;;;;;23.13;17.45;;;19.10;99.90;;;;;;4783886;30;20196;-80
2023/04/17 10:51:27;;;;;;;24.48;18.02;;;19.10;99.90;;;;;;4760984;29;20215;-83
2023/04/17 10:53:57;;;;;;;22.55;17.20;;;19.20;99.90;;;;;;4784408;30;20220;-81
2023/04/17 10:56:27;;;;;;;23.05;16.77;;;19.30;99.90;;;;;;4769989;30;20200;-82
2023/04/17 10:59:06;;;;;;;23.98;17.75;;;19.30;99.90;;;;;;4772197;30;20288;-82
2023/04/17 11:01:56;;;;;;;24.63;16.98;;;19.30;99.90;;;;;;4752526;30;20193;-83
2023/04/17 11:04:25;;;;;;;34.47;18.20;;;19.20;99.90;;;;;;4771596;30;20196;-82
2023/04/17 11:06:52;;;;;;;22.95;16.73;;;19.10;99.90;;;;;;4785865;30;20244;-83
2023/04/17 11:09:25;;;;;;;26.10;17.55;;;19.10;99.90;;;;;;4787466;30;20721;-82
2023/04/17 11:11:51;;;;;;;26.65;18.42;;;19.20;99.90;;;;;;4762565;29;20193;-84
2023/04/17 11:14:18;;;;;;;26.20;18.30;;;19.10;99.90;;;;;;4771450;29;20259;-81
2023/04/17 11:16:47;;;;;;;26.60;19.10;;;19.20;99.90;;;;;;4769550;30;20204;-82
2023/04/17 11:19:18;;;;;;;24.02;17.98;;;19.20;99.90;;;;;;4770016;30;20299;-84
2023/04/17 11:21:46;;;;;;;29.02;18.67;;;19.10;99.90;;;;;;4784052;29;20246;-83
2023/04/17 11:24:12;;;;;;;29.25;19.30;;;19.20;99.90;;;;;;4772238;29;20689;-80
2023/04/17 11:26:47;;;;;;;29.52;18.73;;;19.10;99.90;;;;;;4772052;30;20209;-81
2023/04/17 11:29:17;;;;;;;26.38;17.90;;;19.10;99.90;;;;;;4785571;30;20256;-81
2023/04/17 11:31:47;;;;;;;24.05;17.90;;;19.00;99.90;;;;;;4784329;29;20188;-81
2023/04/17 11:34:17;;;;;;;29.42;18.30;;;19.00;99.90;;;;;;4778213;29;20197;-83
2023/04/17 11:36:56;;;;;;;24.73;17.88;;;19.00;99.90;;;;;;4786758;30;20237;-80
2023/04/17 11:39:24;;;;;;;24.70;17.05;;;19.00;99.90;;;;;;4786140;30;20220;-82
2023/04/17 11:41:51;;;;;;;22.83;17.17;;;19.00;99.90;;;;;;4786119;30;20258;-83
2023/04/17 11:44:21;;;;;;;25.90;18.67;;;19.00;99.90;;;;;;4774964;29;20722;-83
2023/04/17 11:46:51;;;;;;;28.85;17.73;;;19.00;99.90;;;;;;4769878;30;20190;-82
2023/04/17 11:49:27;;;;;;;28.13;17.77;;;18.80;99.90;;;;;;4769587;30;20205;-84
2023/04/17 11:51:53;;;;;;;23.33;17.40;;;18.60;99.90;;;;;;4757203;30;20207;-83
2023/04/17 11:54:36;;;;;;;27.67;18.33;;;18.50;99.90;;;;;;4777860;29;20653;-83
2023/04/17 11:57:20;;;;;;;25.42;17.85;;;18.40;99.90;;;;;;4783572;29;20185;-85
2023/04/17 11:59:46;;;;;;;27.23;17.70;;;18.30;99.90;;;;;;4785931;29;20677;-83
2023/04/17 12:02:12;;;;;;;24.35;17.98;;;18.30;99.90;;;;;;4791266;30;20193;-83
2023/04/17 12:04:38;;;;;;;25.35;17.95;;;18.30;99.90;;;;;;4774466;30;20214;-83
2023/04/17 12:07:05;;;;;;;26.60;18.02;;;18.30;99.90;;;;;;4774347;30;20654;-83
2023/04/17 12:09:32;;;;;;;29.88;18.17;;;18.30;99.90;;;;;;4791339;30;20188;-83
2023/04/17 12:12:02;;;;;;;27.70;18.27;;;18.30;99.90;;;;;;4790951;30;20196;-84
2023/04/17 12:14:29;;;;;;;28.20;18.10;;;18.30;99.90;;;;;;4770833;29;20551;-82
2023/04/17 12:16:54;;;;;;;26.20;18.45;;;18.30;99.90;;;;;;4779230;29;20270;-84
2023/04/17 12:19:20;;;;;;;23.15;16.42;;;18.30;99.90;;;;;;4772570;30;20253;-83
2023/04/17 12:21:46;;;;;;;24.33;18.00;;;18.20;99.90;;;;;;4772961;30;20213;-82
2023/04/17 12:24:12;;;;;;;24.30;17.83;;;18.20;99.90;;;;;;4772515;30;20194;-83
2023/04/17 12:26:49;;;;;;;25.17;17.25;;;18.20;99.90;;;;;;4763425;29;20197;-83
2023/04/17 12:29:15;;;;;;;28.95;17.25;;;18.20;99.90;;;;;;4785554;29;20199;-83
2023/04/17 12:31:42;;;;;;;22.60;15.77;;;18.20;99.90;;;;;;4784214;29;20225;-82
2023/04/17 12:34:08;;;;;;;23.65;16.48;;;18.30;99.60;;;;;;4808277;29;20237;-82
2023/04/17 12:36:34;;;;;;;28.73;15.63;;;18.30;99.40;;;;;;4791984;29;20604;-83
2023/04/17 12:39:00;;;;;;;25.50;17.13;;;18.30;99.10;;;;;;4797398;29;20776;-84
2023/04/17 12:41:26;;;;;;;25.52;17.15;;;18.30;98.80;;;;;;4777556;29;20228;-82
2023/04/17 12:43:53;;;;;;;25.80;16.80;;;18.30;98.70;;;;;;4770751;30;20639;-82
2023/04/17 12:46:19;;;;;;;28.55;17.45;;;18.30;98.50;;;;;;4772669;30;20189;-82
2023/04/17 12:48:45;;;;;;;27.63;17.25;;;18.30;98.20;;;;;;4776493;29;20199;-82
2023/04/17 12:51:11;;;;;;;24.20;16.92;;;18.20;98.30;;;;;;4764345;30;20220;-82
2023/04/17 12:53:36;;;;;;;23.48;16.25;;;18.20;98.20;;;;;;4790191;30;20556;-84
2023/04/17 12:56:02;;;;;;;24.63;16.30;;;18.30;98.00;;;;;;4771779;29;20199;-85
2023/04/17 12:58:28;;;;;;;24.88;16.92;;;18.20;97.80;;;;;;4789551;29;20196;-84
2023/04/17 13:00:54;;;;;;;22.70;16.75;;;18.20;97.70;;;;;;4774281;30;20216;-84
2023/04/17 13:03:19;;;;;;;27.55;18.23;;;18.30;97.60;;;;;;4773833;30;20659;-84
2023/04/17 13:05:47;;;;;;;24.25;16.35;;;18.30;97.40;;;;;;4761944;30;20273;-84
2023/04/17 13:08:13;;;;;;;21.70;16.67;;;18.30;97.30;;;;;;4792962;30;20224;-84
2023/04/17 13:10:41;;;;;;;21.80;15.82;;;18.40;97.30;;;;;;4758857;30;20275;-84
2023/04/17 13:13:07;;;;;;;21.33;16.08;;;18.30;96.90;;;;;;4788308;30;20260;-84
2023/04/17 13:15:33;;;;;;;20.75;15.45;;;18.30;96.60;;;;;;4783215;29;20193;-85
2023/04/17 13:17:59;;;;;;;21.83;15.85;;;18.30;96.50;;;;;;4743242;29;20196;-84
2023/04/17 13:20:25;;;;;;;22.77;16.30;;;18.30;96.50;;;;;;4773353;30;20235;-84
2023/04/17 13:22:51;;;;;;;24.52;15.85;;;18.30;96.50;;;;;;4769477;29;20650;-84
2023/04/17 13:25:16;;;;;;;20.33;14.88;;;18.30;96.40;;;;;;4773191;29;20670;-84
2023/04/17 13:27:42;;;;;;;24.23;16.80;;;18.30;96.40;;;;;;4779683;29;20454;-82
2023/04/17 13:30:08;;;;;;;24.73;15.90;;;18.30;95.70;;;;;;4788221;30;20266;-82
2023/04/17 13:32:34;;;;;;;20.90;15.48;;;18.30;96.10;;;;;;4784343;30;20237;-82
2023/04/17 13:35:01;;;;;;;19.10;14.85;;;18.30;96.10;;;;;;4770420;30;20196;-82
2023/04/17 13:37:27;;;;;;;19.75;15.32;;;18.30;95.90;;;;;;4782178;30;20239;-82
2023/04/17 13:39:53;;;;;;;20.95;15.77;;;18.30;95.80;;;;;;4785549;29;20244;-82
2023/04/17 13:42:19;;;;;;;22.08;14.98;;;18.30;95.90;;;;;;4780647;29;20196;-82
2023/04/17 13:44:45;;;;;;;23.52;15.30;;;18.30;96.00;;;;;;4779818;30;20212;-81
2023/04/17 13:47:12;;;;;;;19.33;14.65;;;18.30;96.20;;;;;;4775792;30;20196;-82
2023/04/17 13:49:38;;;;;;;20.33;14.85;;;18.30;95.70;;;;;;4787172;30;20199;-83
2023/04/17 13:52:04;;;;;;;21.85;14.60;;;18.30;95.70;;;;;;4769821;30;20709;-83
2023/04/17 13:54:30;;;;;;;20.63;13.38;;;18.30;95.50;;;;;;4768765;30;20217;-82
2023/04/17 13:56:57;;;;;;;20.02;14.68;;;18.30;95.30;;;;;;4773551;30;20189;-82
2023/04/17 13:59:23;;;;;;;21.80;14.27;;;18.30;94.80;;;;;;4767392;29;20300;-81
2023/04/17 14:01:49;;;;;;;20.92;13.95;;;18.30;94.40;;;;;;4780606;29;20201;-84